createdAt,value
2022-08-28T00:02:27.923Z,99972.47
2022-08-28T00:07:28.764Z,99982.00
2022-08-28T00:12:31.555Z,99977.78
2022-08-28T00:17:32.268Z,99976.22
2022-08-28T00:22:32.961Z,99979.00
2022-08-28T00:27:52.822Z,99983.69
2022-08-28T00:32:55.437Z,99992.25
2022-08-28T00:37:56.719Z,99990.72
2022-08-28T00:43:00.331Z,99998.84
2022-08-28T00:48:01.098Z,99999.84
2022-08-28T00:53:02.317Z,99988.03
2022-08-28T00:58:06.844Z,99990.56
2022-08-28T01:03:08.648Z,99991.69
2022-08-28T01:08:09.506Z,99991.69
2022-08-28T01:13:14.912Z,99990.41
2022-08-28T01:18:17.101Z,99985.16
2022-08-28T01:23:26.138Z,99988.47
2022-08-28T01:28:28.167Z,99988.72
2022-08-28T01:33:28.913Z,100004.94
2022-08-28T01:38:29.572Z,99994.56
2022-08-28T01:43:31.822Z,99996.63
2022-08-28T01:48:36.052Z,100009.25
2022-08-28T01:53:37.061Z,100012.88
2022-08-28T01:58:40.248Z,100013.25
2022-08-28T02:03:43.131Z,100023.75
2022-08-28T02:08:43.919Z,100023.63
2022-08-28T02:13:45.912Z,100030.25
2022-08-28T02:18:51.653Z,100030.00
2022-08-28T02:23:52.698Z,100031.72
2022-08-28T02:28:54.734Z,100030.09
2022-08-28T02:33:55.921Z,100034.31
2022-08-28T02:38:57.841Z,100037.88
2022-08-28T02:44:00.083Z,100028.38
2022-08-28T02:49:00.833Z,100041.44
2022-08-28T02:54:02.806Z,100037.84
2022-08-28T02:59:04.852Z,100036.97
2022-08-28T03:04:06.355Z,100034.53
2022-08-28T03:09:07.322Z,100030.16
2022-08-28T03:14:09.460Z,100038.13
2022-08-28T03:19:10.131Z,100033.88
2022-08-28T03:24:10.971Z,100035.53
2022-08-28T03:29:17.301Z,100031.41
2022-08-28T03:34:17.985Z,100038.47
2022-08-28T03:39:18.653Z,100031.53
2022-08-28T03:44:20.641Z,100034.19
2022-08-28T03:49:21.309Z,100045.59
2022-08-28T03:54:21.968Z,100044.88
2022-08-28T03:59:26.126Z,100057.13
2022-08-28T04:04:32.476Z,100052.91
2022-08-28T04:09:33.233Z,100059.09
2022-08-28T04:14:35.734Z,100066.25
2022-08-28T04:19:36.572Z,100070.81
2022-08-28T04:24:37.352Z,100071.53
2022-08-28T04:29:39.365Z,100080.22
2022-08-28T04:34:40.477Z,100070.81
2022-08-28T04:39:41.175Z,100087.22
2022-08-28T04:44:43.281Z,100087.31
2022-08-28T04:49:44.030Z,100081.38
2022-08-28T04:54:44.706Z,100085.88
2022-08-28T04:59:46.777Z,100100.69
2022-08-28T05:04:47.707Z,100101.75
2022-08-28T05:09:48.400Z,100114.63
2022-08-28T05:14:50.863Z,100102.78
2022-08-28T05:19:52.308Z,100101.09
2022-08-28T05:24:52.977Z,100113.22
2022-08-28T05:29:58.524Z,100119.16
2022-08-28T05:35:02.367Z,100121.97
2022-08-28T05:40:03.513Z,100136.81
2022-08-28T05:45:06.659Z,100154.59
2022-08-28T05:50:08.942Z,100160.81
2022-08-28T05:55:12.976Z,100172.25
2022-08-28T06:00:15.977Z,100176.59
2022-08-28T06:05:16.934Z,100174.16
2022-08-28T06:10:17.731Z,100178.38
2022-08-28T06:15:21.231Z,100193.34
2022-08-28T06:20:21.903Z,100187.34
2022-08-28T06:25:22.680Z,100183.50
2022-08-28T06:30:24.683Z,100187.47
2022-08-28T06:35:25.356Z,100185.59
2022-08-28T06:40:26.667Z,100193.16
2022-08-28T06:45:28.792Z,100196.38
2022-08-28T06:50:29.733Z,100198.66
2022-08-28T06:55:30.421Z,100204.50
2022-08-28T07:00:32.735Z,100212.84
2022-08-28T07:05:34.010Z,100210.56
2022-08-28T07:10:34.741Z,100217.53
2022-08-28T07:15:36.821Z,100212.91
2022-08-28T07:20:42.566Z,100217.91
2022-08-28T07:25:43.235Z,100231.41
2022-08-28T07:30:45.774Z,100225.16
2022-08-28T07:35:47.121Z,100232.53
2022-08-28T07:40:48.219Z,100234.13
2022-08-28T07:45:59.825Z,100238.25
2022-08-28T07:51:00.597Z,100247.22
2022-08-28T07:56:01.263Z,100247.19
2022-08-28T08:01:03.305Z,100249.06
2022-08-28T08:06:05.678Z,100258.00
2022-08-28T08:11:11.258Z,100255.94
2022-08-28T08:16:18.977Z,100251.56
2022-08-28T08:21:22.333Z,100252.50
2022-08-28T08:26:25.664Z,100253.56
2022-08-28T08:31:32.341Z,100256.16
2022-08-28T08:36:35.099Z,100258.84
2022-08-28T08:41:48.938Z,100261.81
2022-08-28T08:47:04.492Z,100264.66
2022-08-28T08:52:24.364Z,100258.16
2022-08-28T08:57:25.269Z,100258.53
2022-08-28T09:02:34.680Z,100267.09
2022-08-28T09:07:39.998Z,100266.84
2022-08-28T09:12:51.234Z,100269.50
2022-08-28T09:17:58.289Z,100274.31
2022-08-28T09:22:59.048Z,100280.47
2022-08-28T09:28:07.850Z,100278.09
2022-08-28T09:33:10.083Z,100279.13
2022-08-28T09:38:19.817Z,100275.44
2022-08-28T09:43:28.825Z,100283.47
2022-08-28T09:48:36.748Z,100275.44
2022-08-28T09:53:44.047Z,100280.66
2022-08-28T09:58:48.091Z,100289.31
2022-08-28T10:03:54.489Z,100281.28
2022-08-28T10:09:03.614Z,100279.81
2022-08-28T10:14:19.894Z,100288.69
2022-08-28T10:19:33.055Z,100286.16
2022-08-28T10:24:57.258Z,100292.63
2022-08-28T10:30:08.919Z,100298.00
2022-08-28T10:35:17.136Z,100303.06
2022-08-28T10:40:24.624Z,100298.66
2022-08-28T10:45:27.281Z,100302.06
2022-08-28T10:50:35.728Z,100293.25
2022-08-28T10:55:39.909Z,100296.56
2022-08-28T11:00:43.158Z,100298.69
2022-08-28T11:05:53.798Z,100295.84
2022-08-28T11:10:56.299Z,100299.53
2022-08-28T11:15:57.319Z,100302.38
2022-08-28T11:21:12.232Z,100295.63
2022-08-28T11:26:15.864Z,100294.06
2022-08-28T11:31:38.912Z,100293.09
2022-08-28T11:37:01.751Z,100310.19
2022-08-28T11:42:38.424Z,100306.34
2022-08-28T11:47:56.323Z,100308.88
2022-08-28T11:53:36.462Z,100310.00
2022-08-28T11:58:45.582Z,100324.44
2022-08-28T12:03:57.524Z,100326.88
2022-08-28T12:09:07.309Z,100327.03
2022-08-28T12:14:10.312Z,100319.22
2022-08-28T12:19:11.490Z,100312.22
2022-08-28T12:24:22.347Z,100321.63
2022-08-28T12:29:30.321Z,100311.75
2022-08-28T12:34:41.022Z,100310.06
2022-08-28T12:39:43.507Z,100303.97
2022-08-28T12:44:47.053Z,100298.16
2022-08-28T12:49:47.909Z,100297.25
2022-08-28T12:54:51.202Z,100307.84
2022-08-28T12:59:55.706Z,100292.06
2022-08-28T13:04:59.449Z,100297.16
2022-08-28T13:10:05.889Z,100301.47
2022-08-28T13:15:10.041Z,100304.66
2022-08-28T13:20:11.125Z,100290.09
2022-08-28T13:25:22.645Z,100297.69
2022-08-28T13:30:27.426Z,100296.66
2022-08-28T13:35:41.187Z,100295.34
2022-08-28T13:41:02.881Z,100295.69
2022-08-28T13:46:05.372Z,100281.69
2022-08-28T13:51:10.837Z,100276.09
2022-08-28T13:56:12.861Z,100278.53
2022-08-28T14:01:18.059Z,100283.75
2022-08-28T14:06:23.737Z,100280.28
2022-08-28T14:11:33.295Z,100281.13
2022-08-28T14:16:39.613Z,100283.38
2022-08-28T14:21:41.888Z,100274.78
2022-08-28T14:26:42.675Z,100277.25
2022-08-28T14:31:46.498Z,100266.50
2022-08-28T14:36:50.856Z,100268.78
2022-08-28T14:41:52.040Z,100272.16
2022-08-28T14:46:57.108Z,100273.63
2022-08-28T14:51:58.218Z,100265.47
2022-08-28T14:56:58.967Z,100269.34
2022-08-28T15:02:02.113Z,100274.34
2022-08-28T15:07:06.485Z,100276.06
2022-08-28T15:12:07.731Z,100276.81
2022-08-28T15:17:09.803Z,100266.00
2022-08-28T15:22:10.735Z,100265.03
2022-08-28T15:27:11.702Z,100267.16
2022-08-28T15:32:13.771Z,100272.00
2022-08-28T15:37:14.448Z,100264.28
2022-08-28T15:42:15.615Z,100260.94
2022-08-28T15:47:17.608Z,100261.94
2022-08-28T15:52:19.501Z,100269.44
2022-08-28T15:57:20.230Z,100268.72
2022-08-28T16:02:24.500Z,100263.25
2022-08-28T16:07:25.675Z,100269.63
2022-08-28T16:12:26.497Z,100275.31
2022-08-28T16:17:28.580Z,100279.53
2022-08-28T16:22:29.420Z,100275.19
2022-08-28T16:27:30.226Z,100276.47
2022-08-28T16:32:32.261Z,100275.78
2022-08-28T16:37:39.662Z,100281.00
2022-08-28T16:42:41.431Z,100277.97
2022-08-28T16:47:44.522Z,100273.75
2022-08-28T16:52:45.197Z,100275.84
2022-08-28T16:57:45.897Z,100279.03
2022-08-28T17:02:47.992Z,100269.94
2022-08-28T17:07:50.151Z,100265.75
2022-08-28T17:12:50.976Z,100269.31
2022-08-28T17:17:52.972Z,100264.50
2022-08-28T17:22:53.670Z,100277.56
2022-08-28T17:27:54.473Z,100275.66
2022-08-28T17:32:56.566Z,100276.53
2022-08-28T17:37:57.656Z,100275.47
2022-08-28T17:42:58.430Z,100276.72
2022-08-28T17:48:00.507Z,100290.56
2022-08-28T17:53:01.253Z,100291.34
2022-08-28T17:58:02.667Z,100282.31
2022-08-28T18:03:04.671Z,100298.63
2022-08-28T18:08:05.721Z,100312.28
2022-08-28T18:13:07.305Z,100321.34
2022-08-28T18:18:09.684Z,100315.09
2022-08-28T18:23:11.110Z,100322.13
2022-08-28T18:28:15.682Z,100336.91
2022-08-28T18:33:22.226Z,100342.28
2022-08-28T18:38:25.523Z,100339.91
2022-08-28T18:43:26.205Z,100346.34
2022-08-28T18:48:29.743Z,100355.34
2022-08-28T18:53:30.432Z,100358.44
2022-08-28T18:58:31.204Z,100349.94
2022-08-28T19:03:35.210Z,100346.22
2022-08-28T19:08:37.735Z,100349.28
2022-08-28T19:13:38.582Z,100347.19
2022-08-28T19:18:40.800Z,100349.00
2022-08-28T19:23:41.670Z,100357.38
2022-08-28T19:28:52.580Z,100358.41
2022-08-28T19:33:54.698Z,100362.69
2022-08-28T19:38:55.596Z,100366.56
2022-08-28T19:43:56.482Z,100370.00
2022-08-28T19:48:58.848Z,100377.16
2022-08-28T19:54:00.125Z,100376.59
2022-08-28T19:59:03.055Z,100376.59
2022-08-28T20:04:07.419Z,100378.06
2022-08-28T20:09:12.576Z,100376.84
2022-08-28T20:14:14.454Z,100379.03
2022-08-28T20:19:16.768Z,100383.91
2022-08-28T20:24:23.631Z,100379.31
2022-08-28T20:29:24.719Z,100388.25
2022-08-28T20:34:27.425Z,100391.44
2022-08-28T20:39:28.469Z,100396.97
2022-08-28T20:44:29.348Z,100396.34
2022-08-28T20:49:31.382Z,100403.13
2022-08-28T20:54:34.800Z,100403.34
2022-08-28T20:59:40.207Z,100406.50
2022-08-28T21:04:43.619Z,100414.91
2022-08-28T21:10:06.261Z,100408.31
2022-08-28T21:15:09.020Z,100408.47
2022-08-28T21:20:14.264Z,100413.97
2022-08-28T21:25:16.042Z,100421.25
2022-08-28T21:30:19.365Z,100425.72
2022-08-28T21:35:21.586Z,100432.00
2022-08-28T21:40:22.458Z,100437.19
2022-08-28T21:45:23.223Z,100433.81
2022-08-28T21:50:29.058Z,100438.38
2022-08-28T21:55:29.895Z,100428.00
2022-08-28T22:00:31.445Z,100443.03
2022-08-28T22:05:33.478Z,100441.53
2022-08-28T22:10:36.417Z,100440.03
2022-08-28T22:15:41.984Z,100447.09
2022-08-28T22:20:59.542Z,100454.84
2022-08-28T22:26:02.896Z,100451.44
2022-08-28T22:31:03.625Z,100454.16
2022-08-28T22:36:09.905Z,100459.56
2022-08-28T22:41:10.897Z,100460.53
2022-08-28T22:46:12.429Z,100464.16
2022-08-28T22:51:18.313Z,100463.50
2022-08-28T22:56:19.128Z,100464.59
2022-08-28T23:01:24.441Z,100472.44
2022-08-28T23:06:26.454Z,100468.03
2022-08-28T23:11:27.301Z,100475.84
2022-08-28T23:16:28.168Z,100472.50
2022-08-28T23:21:30.266Z,100478.06
2022-08-28T23:26:31.119Z,100479.84
2022-08-28T23:31:31.833Z,100475.72
2022-08-28T23:36:35.858Z,100473.09
2022-08-28T23:41:37.211Z,100483.59
2022-08-28T23:46:41.068Z,100483.72
2022-08-28T23:51:43.909Z,100499.97
2022-08-28T23:56:45.533Z,100490.69
